METAR AND TAF INFORMATION

METAR FOR SVBM
ADDS - METARS form results

(0855 UTC 24 July 2021)
Data provider http://aviationweather.gov/metar/data/
 
METAR text: SVBM 240803Z AUTO 10010KT NCD 22/22 Q1015
Conditions at: SVBM (BARQUISIMETO (MI, VE) observed 0803 UTC 24 July 2021
Temperature: 22.0°C (72°F)
Dewpoint: 22.0°C (72°F) [RH = 100%]
Pressure (altimeter): 29.97 inches Hg (1015.0 mb)
Winds: from the E (100 degrees) at 12 MPH (10 knots; 5.1 m/s)
Visibility: missing
Ceiling: at least 12,000 feet AGL
Clouds: sky clear below 12,000 feet AGL
Weather: no significant weather observed at this time

 

AIRPORT MAP

 

RUNWAY INFORMATION

Runway 09 Runway length 9350 ft Runway width 147 ft
Runway elevation 2042 ft Runway displaced threshold 0 ft Runway heading 81
Runway 27 Runway length 9350 ft Runway width 147 ft
Runway elevation 2001 ft Runway displaced threshold 1541 ft Runway heading 261

 

AIRPORT FREQUENCIES

Type A/G Name LANDAETA R Frequency 569.65 MHZ
Type APP Name APP Frequency 119.4 MHZ
Type ATIS Name ATIS Frequency 112.2 MHZ
Type GND Name GND Frequency 121.9 MHZ
Type RDO Name RDO Frequency 123.1 MHZ
Type RDO Name RDO Frequency 132 MHZ
Type TWR Name TWR Frequency 123.5 MHZ

 

AIRPORT NEAR NAVIGATION AIDS

Type VOR-DME Name Barquisimeto Frequency 112200 KHZ